createdAt,value
2023-03-19T00:01:05.856Z,68.54
2023-03-19T00:03:07.422Z,68.53
2023-03-19T00:05:10.480Z,67.95
2023-03-19T00:07:12.520Z,68.50
2023-03-19T00:09:14.379Z,68.92
2023-03-19T00:11:17.461Z,68.81
2023-03-19T00:13:20.462Z,68.55
2023-03-19T00:15:22.144Z,69.51
2023-03-19T00:17:26.562Z,69.11
2023-03-19T00:19:28.622Z,68.85
2023-03-19T00:21:30.779Z,68.33
2023-03-19T00:23:32.382Z,68.80
2023-03-19T00:25:34.384Z,68.69
2023-03-19T00:27:38.269Z,68.32
2023-03-19T00:29:40.167Z,67.91
2023-03-19T00:31:43.289Z,67.48
2023-03-19T00:33:45.111Z,67.72
2023-03-19T00:35:47.187Z,66.99
2023-03-19T00:37:49.081Z,67.54
2023-03-19T00:39:50.723Z,67.69
2023-03-19T00:41:52.291Z,66.71
2023-03-19T00:43:56.941Z,67.03
2023-03-19T00:45:59.076Z,67.37
2023-03-19T00:48:00.797Z,66.35
2023-03-19T00:50:02.574Z,66.96
2023-03-19T00:52:04.693Z,66.52
2023-03-19T00:54:06.778Z,66.49
2023-03-19T00:56:08.701Z,66.85
2023-03-19T00:58:10.644Z,66.36
2023-03-19T01:02:16.633Z,66.36
2023-03-19T01:04:19.478Z,66.74
2023-03-19T01:06:21.302Z,67.30
2023-03-19T01:08:23.147Z,66.87
2023-03-19T01:10:25.153Z,66.90
2023-03-19T01:12:27.096Z,67.10
2023-03-19T01:14:29.203Z,67.62
2023-03-19T01:16:32.609Z,67.25
2023-03-19T01:18:34.736Z,67.91
2023-03-19T01:20:38.036Z,67.67
2023-03-19T01:22:41.635Z,68.25
2023-03-19T01:24:43.660Z,67.75
2023-03-19T01:26:45.701Z,67.95
2023-03-19T01:28:47.885Z,68.33
2023-03-19T01:30:49.856Z,68.75
2023-03-19T01:32:53.495Z,69.58
2023-03-19T01:34:55.322Z,68.98
2023-03-19T01:36:57.404Z,69.71
2023-03-19T01:39:01.368Z,69.57
2023-03-19T01:41:04.323Z,69.17
2023-03-19T01:43:16.670Z,67.79
2023-03-19T01:45:35.081Z,67.84
2023-03-19T01:47:41.225Z,69.63
2023-03-19T01:49:47.394Z,69.52
2023-03-19T01:51:49.289Z,69.94
2023-03-19T01:53:55.327Z,69.43
2023-03-19T01:56:02.620Z,68.80
2023-03-19T01:58:06.694Z,69.75
2023-03-19T02:00:10.326Z,68.67
2023-03-19T02:02:21.747Z,67.88
2023-03-19T02:04:26.867Z,68.55
2023-03-19T02:06:31.157Z,68.36
2023-03-19T02:08:34.204Z,68.35
2023-03-19T02:10:37.311Z,68.25
2023-03-19T02:12:39.526Z,68.04
2023-03-19T02:14:42.258Z,68.01
2023-03-19T02:16:44.669Z,67.88
2023-03-19T02:18:47.511Z,67.41
2023-03-19T02:20:54.952Z,67.35
2023-03-19T02:23:05.555Z,66.29
2023-03-19T02:25:13.320Z,66.90
2023-03-19T02:27:16.525Z,66.61
2023-03-19T02:29:18.350Z,67.19
2023-03-19T02:31:20.644Z,67.32
2023-03-19T02:33:22.512Z,67.05
2023-03-19T02:35:24.826Z,67.96
2023-03-19T02:37:31.206Z,67.83
2023-03-19T02:39:43.997Z,67.62
2023-03-19T02:41:46.959Z,67.56
2023-03-19T02:43:50.595Z,68.38
2023-03-19T02:45:52.472Z,68.54
2023-03-19T02:47:54.496Z,67.95
2023-03-19T02:49:58.536Z,67.88
2023-03-19T02:52:00.271Z,67.94
2023-03-19T02:54:01.856Z,68.47
2023-03-19T02:56:04.259Z,68.26
2023-03-19T02:58:07.418Z,67.90
2023-03-19T03:00:13.064Z,66.94
2023-03-19T03:02:15.057Z,67.46
2023-03-19T03:04:16.781Z,67.59
2023-03-19T03:06:18.422Z,67.42
2023-03-19T03:08:20.204Z,67.22
2023-03-19T03:10:22.354Z,67.65
2023-03-19T03:12:24.373Z,67.83
2023-03-19T03:14:26.734Z,67.96
2023-03-19T03:16:32.430Z,68.17
2023-03-19T03:18:35.547Z,68.68
2023-03-19T03:20:37.514Z,69.13
2023-03-19T03:22:41.309Z,68.56
2023-03-19T03:24:45.819Z,69.15
2023-03-19T03:26:47.493Z,68.70
2023-03-19T03:28:49.570Z,69.19
2023-03-19T03:30:51.258Z,68.97
2023-03-19T03:32:54.305Z,68.63
2023-03-19T03:35:00.794Z,68.36
2023-03-19T03:37:04.025Z,67.96
2023-03-19T03:39:06.055Z,68.72
2023-03-19T03:41:08.679Z,68.12
2023-03-19T03:43:10.673Z,68.23
2023-03-19T03:45:14.040Z,67.83
2023-03-19T03:47:16.106Z,68.41
2023-03-19T03:49:19.283Z,67.56
2023-03-19T03:51:21.061Z,68.29
2023-03-19T03:53:22.670Z,67.88
2023-03-19T03:55:24.328Z,67.55
2023-03-19T03:57:26.587Z,68.14
2023-03-19T03:59:31.417Z,68.60
2023-03-19T04:01:33.576Z,68.36
2023-03-19T04:03:35.281Z,68.62
2023-03-19T04:05:38.311Z,68.81
2023-03-19T04:07:39.871Z,68.63
2023-03-19T04:09:42.048Z,68.11
2023-03-19T04:11:44.108Z,68.36
2023-03-19T04:13:45.772Z,68.90
2023-03-19T04:15:48.415Z,68.55
2023-03-19T04:17:51.090Z,68.80
2023-03-19T04:19:53.124Z,69.22
2023-03-19T04:21:56.200Z,69.48
2023-03-19T04:23:59.223Z,69.34
2023-03-19T04:26:02.242Z,69.46
2023-03-19T04:28:04.155Z,69.40
2023-03-19T04:30:06.430Z,69.69
2023-03-19T04:32:08.588Z,69.36
2023-03-19T04:34:10.410Z,69.55
2023-03-19T04:36:13.026Z,69.66
2023-03-19T04:38:16.774Z,70.33
2023-03-19T04:40:18.428Z,70.39
2023-03-19T04:42:20.313Z,69.99
2023-03-19T04:44:21.980Z,70.08
2023-03-19T04:46:24.022Z,70.19
2023-03-19T04:48:26.198Z,70.47
2023-03-19T04:50:28.779Z,70.84
2023-03-19T04:52:30.629Z,71.00
2023-03-19T04:54:34.289Z,71.43
2023-03-19T04:56:35.848Z,71.09
2023-03-19T04:58:38.768Z,71.33
2023-03-19T05:00:41.966Z,71.46
2023-03-19T05:02:43.811Z,71.43
2023-03-19T05:04:45.350Z,71.47
2023-03-19T05:06:46.934Z,71.08
2023-03-19T05:08:48.742Z,71.05
2023-03-19T05:10:53.575Z,71.70
2023-03-19T05:12:55.348Z,71.35
2023-03-19T05:14:57.292Z,71.52
2023-03-19T05:16:59.549Z,72.14
2023-03-19T05:19:01.838Z,72.57
2023-03-19T05:21:03.697Z,72.30
2023-03-19T05:23:05.945Z,72.61
2023-03-19T05:25:08.111Z,72.74
2023-03-19T05:27:11.593Z,72.39
2023-03-19T05:29:13.201Z,72.55
2023-03-19T05:31:14.943Z,72.54
2023-03-19T05:33:17.143Z,73.02
2023-03-19T05:35:18.959Z,73.16
2023-03-19T05:37:20.905Z,72.78
2023-03-19T05:39:22.713Z,73.09
2023-03-19T05:41:24.302Z,72.90
2023-03-19T05:43:29.616Z,73.12
2023-03-19T05:45:31.433Z,72.83
2023-03-19T05:47:33.334Z,73.20
2023-03-19T05:49:37.436Z,72.93
2023-03-19T05:51:39.455Z,73.22
2023-03-19T05:53:41.079Z,73.22
2023-03-19T05:55:43.219Z,73.53
2023-03-19T05:57:45.628Z,74.65
2023-03-19T05:59:48.617Z,74.37
2023-03-19T06:01:50.345Z,74.82
2023-03-19T06:03:52.227Z,74.58
2023-03-19T06:05:53.834Z,74.83
2023-03-19T06:07:55.962Z,74.54
2023-03-19T06:09:57.943Z,74.82
2023-03-19T06:12:00.312Z,75.45
2023-03-19T06:14:02.678Z,74.94
2023-03-19T06:16:07.261Z,75.32
2023-03-19T06:18:09.115Z,75.73
2023-03-19T06:20:11.936Z,76.18
2023-03-19T06:22:13.792Z,75.68
2023-03-19T06:24:15.470Z,76.16
2023-03-19T06:26:17.096Z,75.88
2023-03-19T06:28:18.945Z,76.38
2023-03-19T06:30:20.976Z,76.48
2023-03-19T06:32:24.454Z,77.00
2023-03-19T06:34:26.136Z,77.04
2023-03-19T06:36:27.729Z,77.47
2023-03-19T06:38:29.795Z,77.24
2023-03-19T06:40:31.696Z,77.79
2023-03-19T06:42:34.805Z,77.46
2023-03-19T06:44:36.773Z,77.52
2023-03-19T06:46:43.191Z,77.42
2023-03-19T06:48:46.332Z,76.68
2023-03-19T06:50:51.772Z,77.23
2023-03-19T06:52:53.348Z,77.28
2023-03-19T06:54:55.178Z,76.91
2023-03-19T06:56:57.537Z,76.73
2023-03-19T06:58:59.149Z,76.52
2023-03-19T07:01:01.133Z,76.47
2023-03-19T07:03:06.067Z,76.55
2023-03-19T07:05:12.398Z,76.42
2023-03-19T07:07:14.284Z,76.39
2023-03-19T07:09:15.932Z,76.95
2023-03-19T07:11:17.540Z,76.69
2023-03-19T07:13:19.411Z,76.80
2023-03-19T07:15:21.033Z,76.77
2023-03-19T07:17:23.160Z,76.72
2023-03-19T07:19:24.701Z,76.87
2023-03-19T07:21:27.790Z,77.33
2023-03-19T07:23:31.831Z,76.93
2023-03-19T07:25:34.002Z,77.00
2023-03-19T07:27:37.084Z,77.29
2023-03-19T07:29:38.862Z,77.56
2023-03-19T07:31:40.949Z,77.04
2023-03-19T07:33:42.889Z,77.68
2023-03-19T07:35:44.540Z,77.91
2023-03-19T07:37:47.570Z,78.12
2023-03-19T07:39:49.349Z,78.90
2023-03-19T07:41:50.905Z,78.21
2023-03-19T07:43:52.704Z,78.79
2023-03-19T07:45:54.348Z,79.20
2023-03-19T07:47:56.063Z,79.09
2023-03-19T07:49:57.880Z,79.32
2023-03-19T07:51:59.701Z,78.77
2023-03-19T07:54:02.968Z,78.78
2023-03-19T07:56:05.471Z,79.25
2023-03-19T07:58:07.130Z,78.84
2023-03-19T08:00:10.065Z,78.99
2023-03-19T08:02:13.431Z,78.75
2023-03-19T08:04:15.881Z,78.34
2023-03-19T08:06:19.084Z,78.17
2023-03-19T08:08:21.339Z,77.74
2023-03-19T08:10:24.256Z,78.36
2023-03-19T08:12:26.059Z,78.46
2023-03-19T08:14:27.983Z,78.56
2023-03-19T08:16:29.641Z,78.39
2023-03-19T08:18:31.279Z,79.16
2023-03-19T08:20:34.928Z,78.39
2023-03-19T08:22:38.724Z,78.95
2023-03-19T08:24:40.801Z,78.70
2023-03-19T08:26:44.177Z,78.71
2023-03-19T08:28:46.052Z,78.08
2023-03-19T08:30:47.797Z,78.09
2023-03-19T08:32:49.639Z,78.16
2023-03-19T08:34:51.240Z,78.77
2023-03-19T08:36:53.965Z,77.51
2023-03-19T08:38:55.756Z,77.27
2023-03-19T08:40:57.577Z,77.39
2023-03-19T08:43:00.795Z,77.47
2023-03-19T08:45:02.890Z,76.38
2023-03-19T08:47:04.850Z,76.78
2023-03-19T08:49:06.682Z,76.29
2023-03-19T08:51:08.561Z,76.65
2023-03-19T08:53:12.312Z,75.80
2023-03-19T08:55:15.481Z,76.13
2023-03-19T08:57:17.328Z,76.36
2023-03-19T08:59:20.529Z,76.64
2023-03-19T09:01:22.620Z,76.52
2023-03-19T09:03:25.401Z,76.00
2023-03-19T09:05:29.652Z,75.33
2023-03-19T09:07:31.285Z,76.20
2023-03-19T09:09:33.185Z,75.44
2023-03-19T09:11:34.858Z,75.99
2023-03-19T09:13:37.210Z,75.60
2023-03-19T09:15:40.220Z,75.89
2023-03-19T09:17:41.903Z,75.59
2023-03-19T09:19:43.490Z,75.58
2023-03-19T09:21:45.347Z,76.14
2023-03-19T09:23:47.172Z,74.80
2023-03-19T09:25:49.261Z,74.74
2023-03-19T09:27:51.651Z,74.10
2023-03-19T09:29:53.438Z,73.69
2023-03-19T09:31:56.422Z,73.02
2023-03-19T09:33:58.169Z,73.66
2023-03-19T09:35:59.822Z,73.33
2023-03-19T09:38:02.058Z,72.84
2023-03-19T09:40:05.635Z,73.12
2023-03-19T09:42:24.444Z,71.79
2023-03-19T09:44:29.469Z,71.52
2023-03-19T09:46:40.888Z,70.74
2023-03-19T09:48:49.716Z,69.57
2023-03-19T09:50:51.554Z,70.05
2023-03-19T09:53:00.507Z,68.96
2023-03-19T09:55:11.815Z,68.96
2023-03-19T09:57:15.210Z,66.86
2023-03-19T09:59:17.048Z,66.96
2023-03-19T10:01:25.977Z,66.87
2023-03-19T10:03:44.913Z,66.57
2023-03-19T10:05:56.812Z,65.69
2023-03-19T10:08:21.672Z,65.05
2023-03-19T10:10:42.199Z,64.89
2023-03-19T10:12:55.374Z,63.24
2023-03-19T10:15:19.101Z,63.67
2023-03-19T10:17:27.688Z,61.75
2023-03-19T10:19:40.900Z,62.01
2023-03-19T10:21:51.027Z,60.80
2023-03-19T10:23:57.312Z,59.97
2023-03-19T10:26:00.212Z,59.56
2023-03-19T10:28:11.993Z,59.33
2023-03-19T10:30:16.304Z,58.13
2023-03-19T10:32:19.523Z,57.40
2023-03-19T10:34:28.860Z,58.52
2023-03-19T10:36:34.890Z,57.25
2023-03-19T10:38:43.515Z,58.37
2023-03-19T10:40:56.249Z,57.41
2023-03-19T10:43:06.854Z,57.42
2023-03-19T10:45:18.747Z,57.45
2023-03-19T10:47:26.243Z,57.32
2023-03-19T10:49:28.330Z,57.18
2023-03-19T10:51:31.152Z,56.10
2023-03-19T10:53:35.455Z,55.56
2023-03-19T10:55:39.193Z,55.91
2023-03-19T10:57:43.040Z,55.84
2023-03-19T10:59:45.979Z,55.76
2023-03-19T11:01:47.627Z,55.13
2023-03-19T11:03:52.750Z,55.81
2023-03-19T11:06:04.774Z,56.08
2023-03-19T11:08:34.545Z,56.56
2023-03-19T11:10:47.282Z,56.23
2023-03-19T11:12:54.781Z,55.41
2023-03-19T11:15:00.115Z,53.72
2023-03-19T11:17:07.220Z,53.16
2023-03-19T11:19:23.336Z,55.42
2023-03-19T11:21:29.726Z,53.03
2023-03-19T11:23:39.526Z,54.00
2023-03-19T11:25:47.919Z,53.44
2023-03-19T11:27:59.423Z,53.56
2023-03-19T11:30:01.997Z,50.26
2023-03-19T11:32:21.716Z,52.29
2023-03-19T11:34:33.942Z,50.39
2023-03-19T11:36:46.269Z,50.31
2023-03-19T11:38:58.270Z,51.61
2023-03-19T11:41:14.643Z,52.48
2023-03-19T11:43:36.342Z,52.16
2023-03-19T11:45:46.774Z,50.97
2023-03-19T11:48:01.131Z,51.50
2023-03-19T11:50:14.623Z,51.33
2023-03-19T11:52:23.685Z,50.98
2023-03-19T11:54:35.373Z,51.53
2023-03-19T11:56:44.910Z,51.58
2023-03-19T11:59:12.023Z,52.41
2023-03-19T12:01:28.463Z,51.40
2023-03-19T12:03:58.821Z,52.42
2023-03-19T12:06:04.560Z,49.69
2023-03-19T12:08:19.389Z,51.26
2023-03-19T12:10:39.497Z,51.96
2023-03-19T12:12:48.998Z,49.94
2023-03-19T12:15:04.606Z,50.05
2023-03-19T12:17:23.996Z,49.44
2023-03-19T12:19:47.929Z,50.33
2023-03-19T12:22:04.934Z,49.85
2023-03-19T12:24:18.735Z,49.77
2023-03-19T12:26:29.680Z,49.17
2023-03-19T12:28:38.971Z,49.85
2023-03-19T12:30:45.221Z,48.06
2023-03-19T12:33:02.948Z,48.39
2023-03-19T12:35:11.825Z,47.75
2023-03-19T12:37:19.986Z,48.09
2023-03-19T12:39:29.771Z,48.06
2023-03-19T12:41:37.317Z,46.61
2023-03-19T12:43:48.488Z,46.55
2023-03-19T12:45:58.259Z,46.08
2023-03-19T12:48:06.164Z,45.68
2023-03-19T12:50:12.087Z,45.46
2023-03-19T12:52:21.827Z,46.30
2023-03-19T12:54:27.573Z,44.75
2023-03-19T12:56:39.206Z,46.00
2023-03-19T12:58:53.597Z,45.34
2023-03-19T13:01:01.422Z,43.99
2023-03-19T13:03:10.438Z,43.91
2023-03-19T13:05:20.390Z,45.68
2023-03-19T13:07:27.029Z,44.58
2023-03-19T13:09:33.524Z,44.64
2023-03-19T13:11:46.433Z,44.29
2023-03-19T13:13:56.064Z,43.94
2023-03-19T13:16:04.958Z,44.36
2023-03-19T13:18:21.715Z,44.97
2023-03-19T13:20:31.959Z,44.52
2023-03-19T13:22:38.399Z,44.51
2023-03-19T13:24:42.908Z,43.73
2023-03-19T13:26:46.009Z,43.74
2023-03-19T13:29:00.747Z,43.95
2023-03-19T13:31:08.219Z,42.47
2023-03-19T13:33:21.517Z,42.80
2023-03-19T13:35:37.310Z,44.51
2023-03-19T13:37:43.153Z,43.73
2023-03-19T13:39:46.857Z,40.77
2023-03-19T13:41:52.007Z,40.44
2023-03-19T13:43:55.775Z,41.58
2023-03-19T13:46:21.728Z,43.63
2023-03-19T13:48:38.270Z,44.71
2023-03-19T13:50:54.452Z,43.94
2023-03-19T13:53:37.596Z,44.29
2023-03-19T13:55:51.507Z,43.64
2023-03-19T13:57:55.116Z,42.33
2023-03-19T14:00:16.278Z,43.49
2023-03-19T14:02:52.506Z,44.27
2023-03-19T14:05:00.267Z,44.36
2023-03-19T14:07:14.514Z,44.60
2023-03-19T14:09:33.998Z,45.42
2023-03-19T14:11:38.247Z,42.37
2023-03-19T14:13:43.139Z,42.49
2023-03-19T14:15:54.739Z,43.27
2023-03-19T14:18:01.578Z,41.79
2023-03-19T14:20:31.460Z,44.30
2023-03-19T14:22:40.517Z,41.58
2023-03-19T14:24:57.062Z,41.64
2023-03-19T14:27:03.279Z,42.25
2023-03-19T14:29:06.603Z,41.81
2023-03-19T14:31:21.738Z,43.73
2023-03-19T14:33:29.472Z,43.11
2023-03-19T14:35:36.325Z,42.05
2023-03-19T14:37:46.577Z,43.03
2023-03-19T14:39:54.263Z,42.29
2023-03-19T14:42:03.080Z,43.50
2023-03-19T14:44:34.060Z,43.26
2023-03-19T14:46:56.391Z,43.30
2023-03-19T14:49:26.829Z,42.99
2023-03-19T14:51:49.301Z,44.27
2023-03-19T14:53:55.623Z,43.57
2023-03-19T14:56:10.158Z,43.69
2023-03-19T14:58:13.221Z,42.89
2023-03-19T15:00:18.814Z,42.89
2023-03-19T15:02:33.883Z,43.51
2023-03-19T15:04:35.884Z,42.73
2023-03-19T15:06:40.085Z,42.79
2023-03-19T15:08:42.647Z,43.33
2023-03-19T15:10:58.946Z,44.16
2023-03-19T15:13:28.981Z,45.16
2023-03-19T15:15:50.617Z,44.25
2023-03-19T15:18:03.926Z,44.24
2023-03-19T15:20:18.622Z,45.47
2023-03-19T15:22:22.399Z,43.79
2023-03-19T15:24:24.367Z,44.21
2023-03-19T15:26:30.984Z,45.37
2023-03-19T15:28:45.970Z,44.89
2023-03-19T15:31:03.419Z,46.00
2023-03-19T15:33:36.868Z,45.85
2023-03-19T15:35:41.805Z,44.97
2023-03-19T15:37:49.655Z,45.56
2023-03-19T15:39:54.636Z,45.54
2023-03-19T15:41:57.282Z,44.72
2023-03-19T15:43:59.846Z,45.56
2023-03-19T15:46:02.830Z,46.13
2023-03-19T15:48:09.837Z,45.98
2023-03-19T15:50:19.143Z,46.04
2023-03-19T15:52:21.342Z,45.40
2023-03-19T15:54:23.697Z,45.92
2023-03-19T15:56:25.965Z,45.86
2023-03-19T15:58:30.743Z,46.42
2023-03-19T16:00:33.469Z,46.38
2023-03-19T16:02:36.880Z,46.25
2023-03-19T16:05:06.761Z,46.75
2023-03-19T16:07:02.914Z,47.44
2023-03-19T16:09:19.382Z,47.35
2023-03-19T16:11:35.943Z,47.52
2023-03-19T16:13:46.324Z,47.65
2023-03-19T16:15:53.666Z,47.75
2023-03-19T16:18:09.884Z,47.78
2023-03-19T16:20:14.658Z,47.96
2023-03-19T16:22:22.090Z,48.59
2023-03-19T16:24:27.521Z,48.55
2023-03-19T16:26:37.221Z,48.13
2023-03-19T16:28:45.151Z,48.45
2023-03-19T16:30:48.779Z,48.27
2023-03-19T16:33:09.039Z,48.66
2023-03-19T16:35:15.806Z,48.84
2023-03-19T16:37:34.855Z,48.67
2023-03-19T16:39:37.337Z,49.19
2023-03-19T16:41:43.861Z,49.19
2023-03-19T16:43:46.951Z,49.25
2023-03-19T16:46:04.847Z,49.35
2023-03-19T16:48:08.474Z,49.09
2023-03-19T16:50:13.238Z,49.56
2023-03-19T16:52:19.773Z,49.59
2023-03-19T16:54:23.019Z,49.99
2023-03-19T16:56:24.857Z,49.80
2023-03-19T16:58:29.990Z,49.71
2023-03-19T17:00:33.279Z,49.95
2023-03-19T17:02:35.001Z,49.73
2023-03-19T17:04:36.851Z,49.95
2023-03-19T17:06:38.592Z,50.15
2023-03-19T17:08:40.781Z,50.22
2023-03-19T17:10:48.100Z,50.29
2023-03-19T17:12:52.286Z,50.93
2023-03-19T17:14:54.116Z,50.92
2023-03-19T17:16:58.859Z,50.67
2023-03-19T17:19:00.655Z,50.84
2023-03-19T17:21:06.878Z,51.03
2023-03-19T17:23:10.696Z,51.62
2023-03-19T17:25:13.633Z,51.48
2023-03-19T17:27:16.534Z,51.74
2023-03-19T17:29:21.568Z,51.52
2023-03-19T17:31:26.017Z,51.59
2023-03-19T17:33:29.864Z,51.93
2023-03-19T17:35:33.148Z,52.06
2023-03-19T17:37:35.014Z,51.62
2023-03-19T17:39:36.657Z,51.80
2023-03-19T17:41:38.278Z,51.19
2023-03-19T17:43:44.468Z,51.52
2023-03-19T17:45:49.316Z,51.35
2023-03-19T17:47:54.004Z,51.42
2023-03-19T17:49:57.163Z,51.64
2023-03-19T17:51:59.271Z,51.82
2023-03-19T17:54:00.888Z,52.04
2023-03-19T17:56:02.922Z,51.46
2023-03-19T17:58:04.623Z,51.30
2023-03-19T18:00:10.699Z,50.60
2023-03-19T18:02:27.950Z,50.81
2023-03-19T18:04:29.743Z,50.39
2023-03-19T18:06:35.244Z,50.45
2023-03-19T18:08:37.059Z,49.90
2023-03-19T18:10:41.005Z,50.00
2023-03-19T18:12:43.502Z,50.47
2023-03-19T18:14:45.380Z,50.59
2023-03-19T18:16:51.106Z,50.96
2023-03-19T18:18:55.600Z,50.83
2023-03-19T18:20:59.512Z,51.07
2023-03-19T18:23:03.159Z,51.48
2023-03-19T18:25:06.029Z,50.76
2023-03-19T18:27:08.240Z,51.28
2023-03-19T18:29:09.855Z,51.84
2023-03-19T18:31:16.019Z,51.48
2023-03-19T18:33:25.848Z,51.83
2023-03-19T18:35:30.185Z,51.52
2023-03-19T18:37:34.549Z,52.29
2023-03-19T18:39:36.163Z,52.14
2023-03-19T18:41:37.775Z,52.12
2023-03-19T18:43:39.749Z,52.29
2023-03-19T18:45:42.383Z,52.20
2023-03-19T18:47:46.316Z,52.12
2023-03-19T18:49:49.321Z,52.07
2023-03-19T18:52:02.048Z,52.42
2023-03-19T18:54:04.502Z,52.57
2023-03-19T18:56:20.211Z,52.48
2023-03-19T18:58:24.713Z,52.76
2023-03-19T19:00:29.774Z,53.37
2023-03-19T19:02:34.216Z,53.32
2023-03-19T19:04:35.818Z,52.66
2023-03-19T19:06:47.201Z,53.38
2023-03-19T19:08:49.799Z,53.22
2023-03-19T19:10:54.138Z,53.19
2023-03-19T19:12:56.612Z,53.24
2023-03-19T19:14:59.206Z,53.82
2023-03-19T19:17:01.082Z,53.46
2023-03-19T19:19:03.515Z,53.81
2023-03-19T19:21:05.540Z,53.76
2023-03-19T19:23:09.777Z,54.00
2023-03-19T19:25:15.899Z,53.82
2023-03-19T19:27:20.451Z,54.35
2023-03-19T19:29:24.791Z,54.24
2023-03-19T19:31:29.007Z,54.25
2023-03-19T19:33:34.641Z,54.81
2023-03-19T19:35:36.468Z,54.49
2023-03-19T19:37:38.288Z,54.36
2023-03-19T19:39:41.390Z,54.34
2023-03-19T19:41:43.510Z,54.87
2023-03-19T19:43:46.427Z,54.87
2023-03-19T19:45:50.126Z,54.87
2023-03-19T19:47:52.220Z,55.23
2023-03-19T19:49:53.983Z,55.17
2023-03-19T19:51:56.143Z,54.90
2023-03-19T19:53:57.748Z,55.18
2023-03-19T19:56:06.713Z,56.14
2023-03-19T19:58:18.228Z,55.45
2023-03-19T20:00:23.111Z,55.88
2023-03-19T20:02:27.189Z,55.91
2023-03-19T20:04:30.580Z,56.12
2023-03-19T20:06:32.286Z,56.61
2023-03-19T20:08:34.292Z,56.39
2023-03-19T20:10:37.852Z,56.34
2023-03-19T20:12:49.218Z,55.99
2023-03-19T20:14:52.350Z,56.62
2023-03-19T20:16:54.456Z,56.48
2023-03-19T20:18:58.392Z,56.73
2023-03-19T20:21:02.038Z,56.46
2023-03-19T20:23:03.710Z,56.39
2023-03-19T20:25:07.265Z,56.67
2023-03-19T20:27:17.705Z,56.60
2023-03-19T20:29:20.826Z,57.45
2023-03-19T20:31:26.335Z,57.29
2023-03-19T20:33:29.367Z,57.41
2023-03-19T20:35:33.192Z,57.69
2023-03-19T20:37:34.987Z,57.84
2023-03-19T20:39:36.888Z,57.78
2023-03-19T20:41:38.877Z,58.10
2023-03-19T20:43:42.514Z,58.24
2023-03-19T20:45:45.872Z,58.06
2023-03-19T20:47:49.436Z,58.52
2023-03-19T20:49:51.314Z,58.30
2023-03-19T20:51:52.948Z,58.40
2023-03-19T20:53:54.658Z,58.83
2023-03-19T20:55:56.678Z,58.76
2023-03-19T20:57:58.926Z,58.96
2023-03-19T21:00:03.039Z,58.99
2023-03-19T21:02:16.199Z,58.53
2023-03-19T21:04:19.259Z,59.20
2023-03-19T21:06:23.031Z,59.10
2023-03-19T21:08:31.665Z,59.09
2023-03-19T21:10:38.179Z,59.54
2023-03-19T21:12:40.095Z,59.60
2023-03-19T21:14:41.922Z,59.85
2023-03-19T21:16:43.978Z,60.13
2023-03-19T21:18:47.498Z,60.58
2023-03-19T21:20:52.941Z,60.72
2023-03-19T21:23:01.175Z,60.95
2023-03-19T21:25:08.444Z,60.80
2023-03-19T21:27:18.353Z,60.95
2023-03-19T21:29:25.694Z,61.70
2023-03-19T21:31:28.555Z,61.84
2023-03-19T21:33:34.473Z,62.58
2023-03-19T21:35:38.101Z,62.47
2023-03-19T21:37:41.559Z,63.19
2023-03-19T21:39:46.693Z,63.90
2023-03-19T21:41:49.142Z,64.19
2023-03-19T21:43:54.929Z,64.03
2023-03-19T21:45:59.452Z,64.56
2023-03-19T21:48:21.569Z,62.90
2023-03-19T21:50:23.331Z,64.88
2023-03-19T21:52:26.339Z,64.95
2023-03-19T21:54:28.050Z,65.12
2023-03-19T21:56:34.265Z,65.52
2023-03-19T21:58:36.798Z,66.15
2023-03-19T22:00:39.025Z,66.34
2023-03-19T22:02:42.300Z,66.07
2023-03-19T22:04:44.082Z,66.12
2023-03-19T22:06:45.779Z,66.43
2023-03-19T22:08:48.862Z,66.23
2023-03-19T22:10:55.831Z,65.32
2023-03-19T22:12:57.704Z,65.98
2023-03-19T22:14:59.484Z,65.93
2023-03-19T22:17:01.125Z,66.08
2023-03-19T22:19:02.916Z,66.38
2023-03-19T22:21:05.187Z,66.54
2023-03-19T22:23:07.152Z,66.48
2023-03-19T22:25:11.720Z,66.26
2023-03-19T22:27:16.395Z,66.13
2023-03-19T22:29:21.261Z,66.50
2023-03-19T22:31:24.117Z,67.28
2023-03-19T22:33:30.627Z,67.78
2023-03-19T22:35:32.423Z,67.20
2023-03-19T22:37:34.025Z,67.30
2023-03-19T22:39:35.921Z,67.38
2023-03-19T22:41:41.808Z,67.27
2023-03-19T22:43:45.322Z,67.86
2023-03-19T22:45:55.055Z,67.16
2023-03-19T22:47:59.952Z,67.04
2023-03-19T22:50:01.549Z,67.62
2023-03-19T22:52:05.181Z,67.29
2023-03-19T22:54:08.071Z,67.74
2023-03-19T22:56:11.892Z,67.39
2023-03-19T22:58:16.004Z,67.38
2023-03-19T23:00:21.648Z,67.69
2023-03-19T23:02:26.980Z,68.25
2023-03-19T23:04:32.669Z,68.25
2023-03-19T23:06:34.401Z,68.58
2023-03-19T23:08:36.105Z,68.96
2023-03-19T23:10:38.528Z,68.74
2023-03-19T23:12:40.227Z,68.70
2023-03-19T23:14:43.208Z,68.53
2023-03-19T23:16:47.302Z,68.63
2023-03-19T23:18:49.787Z,69.10
2023-03-19T23:20:51.634Z,69.07
2023-03-19T23:22:54.327Z,69.01
2023-03-19T23:24:56.635Z,68.85
2023-03-19T23:27:00.284Z,69.33
2023-03-19T23:29:04.696Z,69.30
2023-03-19T23:31:09.547Z,68.92
2023-03-19T23:33:11.471Z,69.39
2023-03-19T23:35:16.005Z,69.41
2023-03-19T23:37:18.109Z,69.42
2023-03-19T23:39:20.320Z,69.16
2023-03-19T23:41:26.813Z,68.76
2023-03-19T23:43:29.080Z,68.96
2023-03-19T23:45:38.591Z,68.51
2023-03-19T23:47:41.680Z,69.06
2023-03-19T23:49:43.869Z,69.09
2023-03-19T23:51:45.501Z,69.60
2023-03-19T23:53:47.448Z,69.33
2023-03-19T23:55:51.127Z,70.10
2023-03-19T23:57:54.060Z,69.58
2023-03-19T23:59:55.804Z,69.57
